createdAt,value
2023-01-01T00:01:15.432Z,2.40
2023-01-01T00:03:43.404Z,2.45
2023-01-01T00:06:13.804Z,2.83
2023-01-01T00:08:41.775Z,2.88
2023-01-01T00:11:10.668Z,3.33
2023-01-01T00:13:41.270Z,3.03
2023-01-01T00:16:13.394Z,2.60
2023-01-01T00:18:41.293Z,2.75
2023-01-01T00:21:14.038Z,2.78
2023-01-01T00:23:42.097Z,1.95
2023-01-01T00:26:16.590Z,5.07
2023-01-01T00:28:45.822Z,3.10
2023-01-01T00:31:22.878Z,2.17
2023-01-01T00:33:53.780Z,2.95
2023-01-01T00:36:24.406Z,2.97
2023-01-01T00:38:52.278Z,3.33
2023-01-01T00:41:19.996Z,2.75
2023-01-01T00:43:48.329Z,2.95
2023-01-01T00:46:16.037Z,2.78
2023-01-01T00:48:43.787Z,2.45
2023-01-01T00:51:11.507Z,3.25
2023-01-01T00:53:39.242Z,2.45
2023-01-01T00:56:07.310Z,2.92
2023-01-01T00:58:34.924Z,2.50
2023-01-01T01:01:03.104Z,2.72
2023-01-01T01:03:31.436Z,2.20
2023-01-01T01:05:59.980Z,2.80
2023-01-01T01:08:30.945Z,2.90
2023-01-01T01:11:16.444Z,3.25
2023-01-01T01:13:46.572Z,3.08
2023-01-01T01:16:19.496Z,3.20
2023-01-01T01:18:51.170Z,3.53
2023-01-01T01:21:22.625Z,3.58
2023-01-01T01:23:51.319Z,3.45
2023-01-01T01:26:25.254Z,4.28
2023-01-01T01:28:53.539Z,4.20
2023-01-01T01:31:23.773Z,3.55
2023-01-01T01:33:51.532Z,3.42
2023-01-01T01:36:19.693Z,4.20
2023-01-01T01:38:47.759Z,4.25
2023-01-01T01:41:27.509Z,4.13
2023-01-01T01:44:03.369Z,3.53
2023-01-01T01:46:44.495Z,4.15
2023-01-01T01:49:29.171Z,4.32
2023-01-01T01:51:57.081Z,3.45
2023-01-01T01:54:27.898Z,3.70
2023-01-01T01:57:02.891Z,3.97
2023-01-01T01:59:37.191Z,3.53
2023-01-01T02:02:18.911Z,4.05
2023-01-01T02:04:47.362Z,4.43
2023-01-01T02:07:15.815Z,4.22
2023-01-01T02:09:44.066Z,3.33
2023-01-01T02:12:11.658Z,3.92
2023-01-01T02:14:39.319Z,2.38
2023-01-01T02:17:40.681Z,4.38
2023-01-01T02:20:28.514Z,4.07
2023-01-01T02:23:21.054Z,3.13
2023-01-01T02:26:40.501Z,3.25
2023-01-01T02:29:20.678Z,3.13
2023-01-01T02:32:00.666Z,2.95
2023-01-01T02:34:35.919Z,3.05
2023-01-01T02:37:07.636Z,3.42
2023-01-01T02:39:42.366Z,2.60
2023-01-01T02:42:09.995Z,2.50
2023-01-01T02:44:42.065Z,3.45
2023-01-01T02:47:14.438Z,3.08
2023-01-01T02:49:56.657Z,2.97
2023-01-01T02:52:45.682Z,2.88
2023-01-01T02:56:01.539Z,3.22
2023-01-01T02:59:00.132Z,3.33
2023-01-01T03:01:44.612Z,3.00
2023-01-01T03:04:36.802Z,2.63
2023-01-01T03:07:29.598Z,2.47
2023-01-01T03:10:15.354Z,3.15
2023-01-01T03:13:01.344Z,3.50
2023-01-01T03:15:38.645Z,3.35
2023-01-01T03:18:21.488Z,3.75
2023-01-01T03:20:53.548Z,3.50
2023-01-01T03:23:31.731Z,3.78
2023-01-01T03:26:05.548Z,2.60
2023-01-01T03:28:44.365Z,3.08
2023-01-01T03:31:17.928Z,3.55
2023-01-01T03:33:52.371Z,2.67
2023-01-01T03:36:24.859Z,3.08
2023-01-01T03:39:16.234Z,2.50
2023-01-01T03:41:57.089Z,2.38
2023-01-01T03:44:31.917Z,2.58
2023-01-01T03:47:00.452Z,2.80
2023-01-01T03:49:30.191Z,2.88
2023-01-01T03:52:18.810Z,2.88
2023-01-01T03:55:16.246Z,2.78
2023-01-01T03:58:04.564Z,3.22
2023-01-01T04:00:50.053Z,2.38
2023-01-01T04:03:26.331Z,3.08
2023-01-01T04:05:54.547Z,2.22
2023-01-01T04:08:22.715Z,2.83
2023-01-01T04:10:55.935Z,2.55
2023-01-01T04:13:24.095Z,2.58
2023-01-01T04:15:52.155Z,2.33
2023-01-01T04:18:19.623Z,2.45
2023-01-01T04:20:47.186Z,2.15
2023-01-01T04:23:14.817Z,2.22
2023-01-01T04:25:42.763Z,1.85
2023-01-01T04:28:10.292Z,2.78
2023-01-01T04:33:04.654Z,2.42
2023-01-01T04:35:32.516Z,2.15
2023-01-01T04:38:02.827Z,2.40
2023-01-01T04:40:30.434Z,2.47
2023-01-01T04:42:58.014Z,2.47
2023-01-01T04:45:25.658Z,1.95
2023-01-01T04:47:53.314Z,2.08
2023-01-01T04:50:20.948Z,1.70
2023-01-01T04:52:51.310Z,1.98
2023-01-01T04:55:20.405Z,1.83
2023-01-01T04:57:47.867Z,2.40
2023-01-01T05:00:15.948Z,1.98
2023-01-01T05:02:43.608Z,1.70
2023-01-01T05:05:11.255Z,1.45
2023-01-01T05:07:38.783Z,1.83
2023-01-01T05:10:06.916Z,1.40
2023-01-01T05:12:34.437Z,1.95
2023-01-01T05:15:02.022Z,1.60
2023-01-01T05:17:29.668Z,1.55
2023-01-01T05:19:57.254Z,1.88
2023-01-01T05:22:25.250Z,1.55
2023-01-01T05:24:53.170Z,1.73
2023-01-01T05:27:20.608Z,1.35
2023-01-01T05:29:48.188Z,1.45
2023-01-01T05:34:42.360Z,1.40
2023-01-01T05:37:09.995Z,1.17
2023-01-01T05:39:37.514Z,1.45
2023-01-01T05:42:05.168Z,1.65
2023-01-01T05:44:32.727Z,1.20
2023-01-01T05:47:00.399Z,1.30
2023-01-01T05:49:28.373Z,1.00
2023-01-01T05:51:55.985Z,1.48
2023-01-01T05:54:23.489Z,1.27
2023-01-01T05:56:51.106Z,1.15
2023-01-01T05:59:18.675Z,1.67
2023-01-01T06:01:46.440Z,1.52
2023-01-01T06:04:14.511Z,1.63
2023-01-01T06:06:42.469Z,1.10
2023-01-01T06:09:11.131Z,1.17
2023-01-01T06:11:39.230Z,1.00
2023-01-01T06:14:06.697Z,1.02
2023-01-01T06:16:34.588Z,1.30
2023-01-01T06:19:02.213Z,1.27
2023-01-01T06:21:29.971Z,1.40
2023-01-01T06:24:00.789Z,1.20
2023-01-01T06:26:32.317Z,1.48
2023-01-01T06:29:02.817Z,0.93
2023-01-01T06:31:35.612Z,1.17
2023-01-01T06:34:06.066Z,1.38
2023-01-01T06:36:33.600Z,1.25
2023-01-01T06:39:03.694Z,1.17
2023-01-01T06:41:31.517Z,1.40
2023-01-01T06:44:00.815Z,1.17
2023-01-01T06:46:32.127Z,0.90
2023-01-01T06:49:10.850Z,1.48
2023-01-01T06:51:41.503Z,1.10
2023-01-01T06:54:10.096Z,1.20
2023-01-01T06:56:38.420Z,1.15
2023-01-01T06:59:06.365Z,1.20
2023-01-01T07:01:36.350Z,1.17
2023-01-01T07:04:09.875Z,1.03
2023-01-01T07:06:38.011Z,1.70
2023-01-01T07:09:07.697Z,1.42
2023-01-01T07:11:36.414Z,1.02
2023-01-01T07:14:04.311Z,1.05
2023-01-01T07:16:32.164Z,1.58
2023-01-01T07:19:01.130Z,1.67
2023-01-01T07:21:54.328Z,1.25
2023-01-01T07:24:22.057Z,1.08
2023-01-01T07:26:50.751Z,0.93
2023-01-01T07:29:18.330Z,1.33
2023-01-01T07:31:46.863Z,1.30
2023-01-01T07:34:19.113Z,1.75
2023-01-01T07:36:47.234Z,1.23
2023-01-01T07:39:14.796Z,1.15
2023-01-01T07:41:42.376Z,1.63
2023-01-01T07:44:09.940Z,1.10
2023-01-01T07:46:37.686Z,1.45
2023-01-01T07:49:05.748Z,1.92
2023-01-01T07:51:33.448Z,1.55
2023-01-01T07:54:06.701Z,1.17
2023-01-01T07:56:36.388Z,1.45
2023-01-01T07:59:04.593Z,1.50
2023-01-01T08:01:35.953Z,1.40
2023-01-01T08:04:04.463Z,1.40
2023-01-01T08:06:32.050Z,1.25
2023-01-01T08:09:00.639Z,1.60
2023-01-01T08:11:29.411Z,1.63
2023-01-01T08:13:57.220Z,1.30
2023-01-01T08:16:25.261Z,1.45
2023-01-01T08:18:52.789Z,1.33
2023-01-01T08:21:20.336Z,1.58
2023-01-01T08:23:47.973Z,1.58
2023-01-01T08:26:17.953Z,1.60
2023-01-01T08:28:45.532Z,1.50
2023-01-01T08:31:13.183Z,1.50
2023-01-01T08:33:40.826Z,1.05
2023-01-01T08:36:12.771Z,1.40
2023-01-01T08:38:44.903Z,1.23
2023-01-01T08:41:13.513Z,1.00
2023-01-01T08:44:06.624Z,1.00
2023-01-01T08:46:43.481Z,0.80
2023-01-01T08:49:14.967Z,1.00
2023-01-01T08:51:42.953Z,0.88
2023-01-01T08:54:10.337Z,0.80
2023-01-01T08:56:38.343Z,0.80
2023-01-01T08:59:06.197Z,1.08
2023-01-01T09:01:34.422Z,1.23
2023-01-01T09:04:02.326Z,0.90
2023-01-01T09:06:30.274Z,1.25
2023-01-01T09:08:58.184Z,1.13
2023-01-01T09:11:28.399Z,1.05
2023-01-01T09:13:57.033Z,1.17
2023-01-01T09:16:25.286Z,1.15
2023-01-01T09:18:53.278Z,1.33
2023-01-01T09:21:21.253Z,1.10
2023-01-01T09:23:49.138Z,1.13
2023-01-01T09:26:17.835Z,1.35
2023-01-01T09:28:45.676Z,1.50
2023-01-01T09:31:13.636Z,1.02
2023-01-01T09:33:41.914Z,1.30
2023-01-01T09:36:28.476Z,1.60
2023-01-01T09:38:58.110Z,1.27
2023-01-01T09:42:02.792Z,1.60
2023-01-01T09:44:55.951Z,1.23
2023-01-01T09:47:31.376Z,1.35
2023-01-01T09:50:11.664Z,1.40
2023-01-01T09:52:57.996Z,1.48
2023-01-01T09:55:46.564Z,1.90
2023-01-01T09:58:25.034Z,1.52
2023-01-01T10:00:59.561Z,1.80
2023-01-01T10:04:27.472Z,1.27
2023-01-01T10:07:09.222Z,1.92
2023-01-01T10:10:28.100Z,1.80
2023-01-01T10:13:38.199Z,1.75
2023-01-01T10:16:47.142Z,1.30
2023-01-01T10:19:20.767Z,1.50
2023-01-01T10:21:58.685Z,1.50
2023-01-01T10:24:51.553Z,1.83
2023-01-01T10:27:59.744Z,1.77
2023-01-01T10:30:29.562Z,1.77
2023-01-01T10:33:22.716Z,1.67
2023-01-01T10:36:13.255Z,1.90
2023-01-01T10:38:43.229Z,1.42
2023-01-01T10:41:19.278Z,1.60
2023-01-01T10:44:13.710Z,1.60
2023-01-01T10:46:49.457Z,1.77
2023-01-01T10:49:17.443Z,1.95
2023-01-01T10:51:46.275Z,2.03
2023-01-01T10:54:35.689Z,1.40
2023-01-01T10:57:34.569Z,1.50
2023-01-01T11:00:27.013Z,1.20
2023-01-01T11:03:22.092Z,1.40
2023-01-01T11:06:18.636Z,1.88
2023-01-01T11:08:58.133Z,1.25
2023-01-01T11:12:45.919Z,1.20
2023-01-01T11:15:06.739Z,1.40
2023-01-01T11:17:37.214Z,1.52
2023-01-01T11:20:21.016Z,1.25
2023-01-01T11:23:35.850Z,1.73
2023-01-01T11:26:26.835Z,1.45
2023-01-01T11:29:26.689Z,1.00
2023-01-01T11:32:08.209Z,1.00
2023-01-01T11:34:41.408Z,1.33
2023-01-01T11:37:33.054Z,1.35
2023-01-01T11:40:17.366Z,1.17
2023-01-01T11:43:22.620Z,1.58
2023-01-01T11:45:55.373Z,1.35
2023-01-01T11:48:34.302Z,1.15
2023-01-01T11:51:06.770Z,1.27
2023-01-01T11:53:42.087Z,1.25
2023-01-01T11:56:31.821Z,1.42
2023-01-01T11:59:16.652Z,1.58
2023-01-01T12:03:05.627Z,1.40
2023-01-01T12:06:11.869Z,1.30
2023-01-01T12:09:18.197Z,1.40
2023-01-01T12:12:43.739Z,1.13
2023-01-01T12:15:26.036Z,1.80
2023-01-01T12:18:03.986Z,1.95
2023-01-01T12:21:15.920Z,1.90
2023-01-01T12:23:44.844Z,1.45
2023-01-01T12:26:43.547Z,1.48
2023-01-01T12:29:41.014Z,1.13
2023-01-01T12:32:31.031Z,1.55
2023-01-01T12:35:21.975Z,1.35
2023-01-01T12:38:02.075Z,2.50
2023-01-01T12:40:41.458Z,1.45
2023-01-01T12:43:43.009Z,1.90
2023-01-01T12:46:26.998Z,1.77
2023-01-01T12:48:55.023Z,2.20
2023-01-01T12:51:57.854Z,2.38
2023-01-01T12:55:05.340Z,1.67
2023-01-01T12:58:11.623Z,1.58
2023-01-01T13:00:43.476Z,1.65
2023-01-01T13:03:28.555Z,2.47
2023-01-01T13:05:58.527Z,2.20
2023-01-01T13:08:26.083Z,2.25
2023-01-01T13:10:57.232Z,2.40
2023-01-01T13:13:25.788Z,2.05
2023-01-01T13:15:56.423Z,2.13
2023-01-01T13:18:32.594Z,2.13
2023-01-01T13:21:22.038Z,2.10
2023-01-01T13:23:50.772Z,1.92
2023-01-01T13:26:18.855Z,1.88
2023-01-01T13:29:00.720Z,1.98
2023-01-01T13:31:40.924Z,2.00
2023-01-01T13:34:30.335Z,2.47
2023-01-01T13:37:17.344Z,1.98
2023-01-01T13:40:28.986Z,2.30
2023-01-01T13:43:00.704Z,2.30
2023-01-01T13:46:14.242Z,2.10
2023-01-01T13:49:16.038Z,1.98
2023-01-01T13:52:19.855Z,1.98
2023-01-01T13:55:26.699Z,2.20
2023-01-01T13:58:14.941Z,2.33
2023-01-01T14:01:22.136Z,1.85
2023-01-01T14:03:54.266Z,2.28
2023-01-01T14:06:32.019Z,2.38
2023-01-01T14:09:24.548Z,2.10
2023-01-01T14:11:52.513Z,2.35
2023-01-01T14:14:28.230Z,1.73
2023-01-01T14:17:00.629Z,2.03
2023-01-01T14:19:29.230Z,2.08
2023-01-01T14:21:57.686Z,1.95
2023-01-01T14:24:27.059Z,2.10
2023-01-01T14:26:55.487Z,1.73
2023-01-01T14:29:31.998Z,2.33
2023-01-01T14:32:12.670Z,2.22
2023-01-01T14:34:40.708Z,2.10
2023-01-01T14:37:24.717Z,2.10
2023-01-01T14:40:09.341Z,2.10
2023-01-01T14:42:37.699Z,2.00
2023-01-01T14:45:05.901Z,1.92
2023-01-01T14:47:35.419Z,1.75
2023-01-01T14:50:19.648Z,2.33
2023-01-01T14:52:57.992Z,2.22
2023-01-01T14:55:28.134Z,2.53
2023-01-01T14:57:59.783Z,2.43
2023-01-01T15:00:31.145Z,2.35
2023-01-01T15:03:21.148Z,2.00
2023-01-01T15:06:03.189Z,1.80
2023-01-01T15:08:31.187Z,1.65
2023-01-01T15:10:58.860Z,2.22
2023-01-01T15:13:28.164Z,2.00
2023-01-01T15:16:15.533Z,2.00
2023-01-01T15:18:50.393Z,1.95
2023-01-01T15:21:37.330Z,1.77
2023-01-01T15:24:14.574Z,1.90
2023-01-01T15:26:55.350Z,1.95
2023-01-01T15:29:34.090Z,1.70
2023-01-01T15:32:04.951Z,1.80
2023-01-01T15:34:40.416Z,1.75
2023-01-01T15:37:15.191Z,2.30
2023-01-01T15:39:50.601Z,2.00
2023-01-01T15:42:36.218Z,2.28
2023-01-01T15:45:28.956Z,2.03
2023-01-01T15:48:09.935Z,1.90
2023-01-01T15:50:59.075Z,1.80
2023-01-01T15:53:29.836Z,2.20
2023-01-01T15:56:03.688Z,2.05
2023-01-01T15:58:39.410Z,2.08
2023-01-01T16:01:11.714Z,3.28
2023-01-01T16:03:42.076Z,4.25
2023-01-01T16:06:16.870Z,3.60
2023-01-01T16:08:44.809Z,2.60
2023-01-01T16:11:14.419Z,2.22
2023-01-01T16:13:42.167Z,2.30
2023-01-01T16:16:29.404Z,2.20
2023-01-01T16:18:57.764Z,2.33
2023-01-01T16:21:29.012Z,2.45
2023-01-01T16:23:58.632Z,2.20
2023-01-01T16:26:26.131Z,2.35
2023-01-01T16:28:53.784Z,2.33
2023-01-01T16:31:28.503Z,3.10
2023-01-01T16:33:58.896Z,2.70
2023-01-01T16:36:30.089Z,2.58
2023-01-01T16:38:58.695Z,2.53
2023-01-01T16:41:28.696Z,2.90
2023-01-01T16:43:57.158Z,2.63
2023-01-01T16:46:27.865Z,2.70
2023-01-01T16:48:55.669Z,2.72
2023-01-01T16:51:27.229Z,2.85
2023-01-01T16:53:55.363Z,2.47
2023-01-01T16:56:23.498Z,2.55
2023-01-01T16:58:55.316Z,2.97
2023-01-01T17:01:28.245Z,2.58
2023-01-01T17:03:56.255Z,2.20
2023-01-01T17:06:24.076Z,2.15
2023-01-01T17:08:51.993Z,1.85
2023-01-01T17:11:20.972Z,1.70
2023-01-01T17:13:49.159Z,1.92
2023-01-01T17:16:23.483Z,2.20
2023-01-01T17:21:45.549Z,1.83
2023-01-01T17:24:14.292Z,2.15
2023-01-01T17:26:42.174Z,1.88
2023-01-01T17:29:10.097Z,2.65
2023-01-01T17:31:38.207Z,2.63
2023-01-01T17:34:06.180Z,2.08
2023-01-01T17:36:34.147Z,1.77
2023-01-01T17:39:01.663Z,1.70
2023-01-01T17:41:29.273Z,1.85
2023-01-01T17:43:57.572Z,1.85
2023-01-01T17:46:32.847Z,1.80
2023-01-01T17:49:01.589Z,2.40
2023-01-01T17:51:30.160Z,1.65
2023-01-01T17:53:58.058Z,1.60
2023-01-01T17:56:26.076Z,2.70
2023-01-01T17:58:55.259Z,1.85
2023-01-01T18:01:22.865Z,2.40
2023-01-01T18:04:00.034Z,1.50
2023-01-01T18:06:28.919Z,1.90
2023-01-01T18:09:04.212Z,1.63
2023-01-01T18:11:33.552Z,2.08
2023-01-01T18:14:03.217Z,1.90
2023-01-01T18:16:33.573Z,2.00
2023-01-01T18:19:03.972Z,2.10
2023-01-01T18:21:33.772Z,1.95
2023-01-01T18:24:01.794Z,1.70
2023-01-01T18:26:31.562Z,1.35
2023-01-01T18:29:01.719Z,1.77
2023-01-01T18:31:34.412Z,1.33
2023-01-01T18:34:04.411Z,1.70
2023-01-01T18:36:34.709Z,1.80
2023-01-01T18:39:26.644Z,1.90
2023-01-01T18:42:15.761Z,1.75
2023-01-01T18:44:43.780Z,1.55
2023-01-01T18:47:17.360Z,1.50
2023-01-01T18:49:54.091Z,1.65
2023-01-01T18:52:28.154Z,1.23
2023-01-01T18:55:14.006Z,1.40
2023-01-01T18:57:42.223Z,1.10
2023-01-01T19:00:18.067Z,1.98
2023-01-01T19:03:04.251Z,1.92
2023-01-01T19:05:34.947Z,1.95
2023-01-01T19:08:08.685Z,1.75
2023-01-01T19:10:54.079Z,1.65
2023-01-01T19:13:30.812Z,1.58
2023-01-01T19:16:10.416Z,1.92
2023-01-01T19:18:45.796Z,1.70
2023-01-01T19:21:14.180Z,2.03
2023-01-01T19:23:50.998Z,2.22
2023-01-01T19:26:36.082Z,1.90
2023-01-01T19:29:24.216Z,3.22
2023-01-01T19:31:55.222Z,1.98
2023-01-01T19:34:24.534Z,2.28
2023-01-01T19:36:52.589Z,1.92
2023-01-01T19:39:20.657Z,2.00
2023-01-01T19:41:48.565Z,1.95
2023-01-01T19:44:23.048Z,2.00
2023-01-01T19:46:52.927Z,2.10
2023-01-01T19:49:20.925Z,2.80
2023-01-01T19:51:48.872Z,2.17
2023-01-01T19:54:16.990Z,1.88
2023-01-01T19:56:45.060Z,1.90
2023-01-01T19:59:12.900Z,2.30
2023-01-01T20:01:40.942Z,2.03
2023-01-01T20:04:09.093Z,2.03
2023-01-01T20:06:37.782Z,1.85
2023-01-01T20:09:05.846Z,1.83
2023-01-01T20:11:33.344Z,2.10
2023-01-01T20:14:01.541Z,1.52
2023-01-01T20:16:29.429Z,1.65
2023-01-01T20:18:57.315Z,1.70
2023-01-01T20:21:44.144Z,1.63
2023-01-01T20:24:12.141Z,1.67
2023-01-01T20:26:40.032Z,1.70
2023-01-01T20:29:19.795Z,1.67
2023-01-01T20:31:50.589Z,1.90
2023-01-01T20:34:18.971Z,1.90
2023-01-01T20:37:05.384Z,1.75
2023-01-01T20:39:33.500Z,2.00
2023-01-01T20:42:01.421Z,2.35
2023-01-01T20:44:29.614Z,3.40
2023-01-01T20:46:58.332Z,3.50
2023-01-01T20:49:26.331Z,3.67
2023-01-01T20:51:54.308Z,2.97
2023-01-01T20:54:23.466Z,2.40
2023-01-01T20:56:51.850Z,2.25
2023-01-01T20:59:37.244Z,2.70
2023-01-01T21:02:10.778Z,2.38
2023-01-01T21:04:40.152Z,1.95
2023-01-01T21:07:12.343Z,2.33
2023-01-01T21:09:41.095Z,2.20
2023-01-01T21:12:09.774Z,2.80
2023-01-01T21:14:37.810Z,2.30
2023-01-01T21:17:24.770Z,3.28
2023-01-01T21:19:55.741Z,2.42
2023-01-01T21:22:23.425Z,1.98
2023-01-01T21:24:55.368Z,2.30
2023-01-01T21:27:33.921Z,2.70
2023-01-01T21:30:02.313Z,2.75
2023-01-01T21:32:42.788Z,2.40
2023-01-01T21:35:23.392Z,2.55
2023-01-01T21:37:54.289Z,2.15
2023-01-01T21:40:46.517Z,2.53
2023-01-01T21:43:24.712Z,2.63
2023-01-01T21:45:53.662Z,2.28
2023-01-01T21:48:31.875Z,2.28
2023-01-01T21:51:00.854Z,2.70
2023-01-01T21:53:32.198Z,2.50
2023-01-01T21:56:18.370Z,2.30
2023-01-01T21:59:05.339Z,2.17
2023-01-01T22:01:40.119Z,3.17
2023-01-01T22:04:11.227Z,2.50
2023-01-01T22:06:51.774Z,2.63
2023-01-01T22:09:23.541Z,2.70
2023-01-01T22:12:02.109Z,2.30
2023-01-01T22:14:38.356Z,2.83
2023-01-01T22:17:33.419Z,2.60
2023-01-01T22:20:23.477Z,2.85
2023-01-01T22:22:51.418Z,2.75
2023-01-01T22:25:31.577Z,2.25
2023-01-01T22:28:21.784Z,2.40
2023-01-01T22:30:54.113Z,2.45
2023-01-01T22:33:30.712Z,2.72
2023-01-01T22:35:58.754Z,2.45
2023-01-01T22:38:33.326Z,3.00
2023-01-01T22:41:01.466Z,2.70
2023-01-01T22:43:36.687Z,2.58
2023-01-01T22:46:36.486Z,2.42
2023-01-01T22:49:22.555Z,2.92
2023-01-01T22:51:57.014Z,3.55
2023-01-01T22:54:25.121Z,2.75
2023-01-01T22:56:53.028Z,3.33
2023-01-01T22:59:21.247Z,3.00
2023-01-01T23:01:49.327Z,3.28
2023-01-01T23:04:17.351Z,2.92
2023-01-01T23:06:45.444Z,2.95
2023-01-01T23:09:13.522Z,3.10
2023-01-01T23:11:41.418Z,2.72
2023-01-01T23:14:27.831Z,2.78
2023-01-01T23:16:56.577Z,2.45
2023-01-01T23:19:24.589Z,2.40
2023-01-01T23:21:52.954Z,2.65
2023-01-01T23:24:22.646Z,2.85
2023-01-01T23:26:51.704Z,2.35
2023-01-01T23:29:21.145Z,2.42
2023-01-01T23:31:49.637Z,2.42
2023-01-01T23:34:17.686Z,2.65
2023-01-01T23:36:45.560Z,2.67
2023-01-01T23:39:13.468Z,2.58
2023-01-01T23:41:41.395Z,2.08
2023-01-01T23:44:09.186Z,2.30
2023-01-01T23:46:38.140Z,2.80
2023-01-01T23:49:06.576Z,3.45
2023-01-01T23:51:35.225Z,2.90
2023-01-01T23:54:03.312Z,2.53
2023-01-01T23:56:31.169Z,2.90
2023-01-01T23:58:59.078Z,2.63
